sensor_id;sensor_type;location;lat;lon;timestamp;P1;durP1;ratioP1;P2;durP2;ratioP2
76021;SDS011;64718;52.124;6.226;2023-07-09T00:00:52;6.82;;;4.20;;
76021;SDS011;64718;52.124;6.226;2023-07-09T00:03:18;7.32;;;4.72;;
76021;SDS011;64718;52.124;6.226;2023-07-09T00:05:47;7.45;;;5.57;;
76021;SDS011;64718;52.124;6.226;2023-07-09T00:08:16;7.65;;;5.38;;
76021;SDS011;64718;52.124;6.226;2023-07-09T00:10:51;7.40;;;5.03;;
76021;SDS011;64718;52.124;6.226;2023-07-09T00:13:18;6.65;;;5.18;;
76021;SDS011;64718;52.124;6.226;2023-07-09T00:15:46;7.30;;;5.68;;
76021;SDS011;64718;52.124;6.226;2023-07-09T00:18:13;6.15;;;5.53;;
76021;SDS011;64718;52.124;6.226;2023-07-09T00:20:40;6.35;;;4.95;;
76021;SDS011;64718;52.124;6.226;2023-07-09T00:23:09;7.55;;;4.57;;
76021;SDS011;64718;52.124;6.226;2023-07-09T00:25:38;7.30;;;5.40;;
76021;SDS011;64718;52.124;6.226;2023-07-09T00:28:07;7.18;;;5.95;;
76021;SDS011;64718;52.124;6.226;2023-07-09T00:30:38;6.88;;;5.55;;
76021;SDS011;64718;52.124;6.226;2023-07-09T00:33:04;8.02;;;5.78;;
76021;SDS011;64718;52.124;6.226;2023-07-09T00:35:34;8.23;;;5.95;;
76021;SDS011;64718;52.124;6.226;2023-07-09T00:38:01;6.85;;;6.05;;
76021;SDS011;64718;52.124;6.226;2023-07-09T00:40:29;8.85;;;6.38;;
76021;SDS011;64718;52.124;6.226;2023-07-09T00:42:59;10.02;;;6.85;;
76021;SDS011;64718;52.124;6.226;2023-07-09T00:45:26;8.65;;;6.43;;
76021;SDS011;64718;52.124;6.226;2023-07-09T00:47:54;8.70;;;6.50;;
76021;SDS011;64718;52.124;6.226;2023-07-09T00:50:28;7.72;;;6.32;;
76021;SDS011;64718;52.124;6.226;2023-07-09T00:53:01;8.27;;;6.05;;
76021;SDS011;64718;52.124;6.226;2023-07-09T00:55:34;8.38;;;6.18;;
76021;SDS011;64718;52.124;6.226;2023-07-09T00:58:06;9.70;;;6.85;;
76021;SDS011;64718;52.124;6.226;2023-07-09T01:00:38;8.45;;;6.32;;
76021;SDS011;64718;52.124;6.226;2023-07-09T01:03:11;8.82;;;5.70;;
76021;SDS011;64718;52.124;6.226;2023-07-09T01:05:46;7.88;;;6.15;;
76021;SDS011;64718;52.124;6.226;2023-07-09T01:08:16;8.45;;;6.38;;
76021;SDS011;64718;52.124;6.226;2023-07-09T01:10:45;11.48;;;6.70;;
76021;SDS011;64718;52.124;6.226;2023-07-09T01:13:11;10.98;;;7.13;;
76021;SDS011;64718;52.124;6.226;2023-07-09T01:15:38;8.05;;;6.13;;
76021;SDS011;64718;52.124;6.226;2023-07-09T01:18:05;8.93;;;7.07;;
76021;SDS011;64718;52.124;6.226;2023-07-09T01:20:33;9.43;;;5.63;;
76021;SDS011;64718;52.124;6.226;2023-07-09T01:23:01;7.90;;;5.70;;
76021;SDS011;64718;52.124;6.226;2023-07-09T01:25:28;9.60;;;5.50;;
76021;SDS011;64718;52.124;6.226;2023-07-09T01:27:55;8.90;;;6.47;;
76021;SDS011;64718;52.124;6.226;2023-07-09T01:30:23;8.23;;;5.72;;
76021;SDS011;64718;52.124;6.226;2023-07-09T01:32:56;10.80;;;6.13;;
76021;SDS011;64718;52.124;6.226;2023-07-09T01:35:24;7.80;;;5.13;;
76021;SDS011;64718;52.124;6.226;2023-07-09T01:37:51;10.57;;;5.72;;
76021;SDS011;64718;52.124;6.226;2023-07-09T01:40:20;7.80;;;6.07;;
76021;SDS011;64718;52.124;6.226;2023-07-09T01:42:49;9.63;;;5.35;;
76021;SDS011;64718;52.124;6.226;2023-07-09T01:45:16;8.38;;;7.13;;
76021;SDS011;64718;52.124;6.226;2023-07-09T01:47:45;9.13;;;6.93;;
76021;SDS011;64718;52.124;6.226;2023-07-09T01:50:12;7.03;;;6.32;;
76021;SDS011;64718;52.124;6.226;2023-07-09T01:52:40;9.55;;;5.78;;
76021;SDS011;64718;52.124;6.226;2023-07-09T01:55:09;10.27;;;7.18;;
76021;SDS011;64718;52.124;6.226;2023-07-09T01:57:38;10.68;;;7.30;;
76021;SDS011;64718;52.124;6.226;2023-07-09T02:00:06;14.73;;;7.68;;
76021;SDS011;64718;52.124;6.226;2023-07-09T02:02:36;10.38;;;7.55;;
76021;SDS011;64718;52.124;6.226;2023-07-09T02:05:04;11.10;;;7.25;;
76021;SDS011;64718;52.124;6.226;2023-07-09T02:07:32;9.02;;;7.47;;
76021;SDS011;64718;52.124;6.226;2023-07-09T02:09:58;8.45;;;7.13;;
76021;SDS011;64718;52.124;6.226;2023-07-09T02:12:25;8.63;;;6.25;;
76021;SDS011;64718;52.124;6.226;2023-07-09T02:14:53;9.73;;;7.50;;
76021;SDS011;64718;52.124;6.226;2023-07-09T02:17:19;9.20;;;6.88;;
76021;SDS011;64718;52.124;6.226;2023-07-09T02:19:46;9.38;;;6.78;;
76021;SDS011;64718;52.124;6.226;2023-07-09T02:22:12;8.93;;;7.10;;
76021;SDS011;64718;52.124;6.226;2023-07-09T02:24:39;10.20;;;7.50;;
76021;SDS011;64718;52.124;6.226;2023-07-09T02:27:07;9.63;;;7.07;;
76021;SDS011;64718;52.124;6.226;2023-07-09T02:29:36;9.38;;;6.35;;
76021;SDS011;64718;52.124;6.226;2023-07-09T02:32:04;9.43;;;7.38;;
76021;SDS011;64718;52.124;6.226;2023-07-09T02:34:31;8.70;;;7.22;;
76021;SDS011;64718;52.124;6.226;2023-07-09T02:39:26;10.18;;;6.43;;
76021;SDS011;64718;52.124;6.226;2023-07-09T02:41:53;8.63;;;5.63;;
76021;SDS011;64718;52.124;6.226;2023-07-09T02:44:20;10.48;;;7.00;;
76021;SDS011;64718;52.124;6.226;2023-07-09T02:46:46;12.65;;;7.28;;
76021;SDS011;64718;52.124;6.226;2023-07-09T02:49:14;8.57;;;6.75;;
76021;SDS011;64718;52.124;6.226;2023-07-09T02:51:42;10.15;;;6.25;;
76021;SDS011;64718;52.124;6.226;2023-07-09T02:54:08;10.25;;;6.63;;
76021;SDS011;64718;52.124;6.226;2023-07-09T02:56:35;9.10;;;6.93;;
76021;SDS011;64718;52.124;6.226;2023-07-09T02:59:01;10.98;;;6.90;;
76021;SDS011;64718;52.124;6.226;2023-07-09T03:01:29;10.35;;;7.38;;
76021;SDS011;64718;52.124;6.226;2023-07-09T03:03:58;10.07;;;6.07;;
76021;SDS011;64718;52.124;6.226;2023-07-09T03:06:28;9.90;;;6.28;;
76021;SDS011;64718;52.124;6.226;2023-07-09T03:08:57;8.15;;;6.03;;
76021;SDS011;64718;52.124;6.226;2023-07-09T03:11:24;10.07;;;7.03;;
76021;SDS011;64718;52.124;6.226;2023-07-09T03:13:51;9.00;;;5.53;;
76021;SDS011;64718;52.124;6.226;2023-07-09T03:16:18;9.68;;;5.95;;
76021;SDS011;64718;52.124;6.226;2023-07-09T03:18:45;10.55;;;6.75;;
76021;SDS011;64718;52.124;6.226;2023-07-09T03:21:12;9.65;;;7.15;;
76021;SDS011;64718;52.124;6.226;2023-07-09T03:23:40;10.55;;;6.85;;
76021;SDS011;64718;52.124;6.226;2023-07-09T03:26:07;9.48;;;6.90;;
76021;SDS011;64718;52.124;6.226;2023-07-09T03:28:33;11.45;;;7.50;;
76021;SDS011;64718;52.124;6.226;2023-07-09T03:31:00;9.45;;;6.05;;
76021;SDS011;64718;52.124;6.226;2023-07-09T03:33:26;9.93;;;7.85;;
76021;SDS011;64718;52.124;6.226;2023-07-09T03:35:53;11.40;;;7.22;;
76021;SDS011;64718;52.124;6.226;2023-07-09T03:38:20;9.05;;;8.00;;
76021;SDS011;64718;52.124;6.226;2023-07-09T03:40:50;12.65;;;9.00;;
76021;SDS011;64718;52.124;6.226;2023-07-09T03:43:17;10.52;;;6.70;;
76021;SDS011;64718;52.124;6.226;2023-07-09T03:45:44;9.98;;;7.15;;
76021;SDS011;64718;52.124;6.226;2023-07-09T03:48:12;11.75;;;8.10;;
76021;SDS011;64718;52.124;6.226;2023-07-09T03:50:39;8.57;;;7.55;;
76021;SDS011;64718;52.124;6.226;2023-07-09T03:53:07;11.68;;;7.63;;
76021;SDS011;64718;52.124;6.226;2023-07-09T03:55:33;12.63;;;8.25;;
76021;SDS011;64718;52.124;6.226;2023-07-09T03:58:01;10.38;;;7.10;;
76021;SDS011;64718;52.124;6.226;2023-07-09T04:02:55;8.35;;;5.25;;
76021;SDS011;64718;52.124;6.226;2023-07-09T04:05:22;10.73;;;7.35;;
76021;SDS011;64718;52.124;6.226;2023-07-09T04:07:49;8.68;;;7.13;;
76021;SDS011;64718;52.124;6.226;2023-07-09T04:10:16;7.85;;;6.30;;
76021;SDS011;64718;52.124;6.226;2023-07-09T04:12:43;9.32;;;7.25;;
76021;SDS011;64718;52.124;6.226;2023-07-09T04:15:11;9.85;;;6.30;;
76021;SDS011;64718;52.124;6.226;2023-07-09T04:17:39;11.15;;;7.20;;
76021;SDS011;64718;52.124;6.226;2023-07-09T04:20:06;7.68;;;6.55;;
76021;SDS011;64718;52.124;6.226;2023-07-09T04:22:34;8.43;;;5.80;;
76021;SDS011;64718;52.124;6.226;2023-07-09T04:25:01;9.38;;;7.80;;
76021;SDS011;64718;52.124;6.226;2023-07-09T04:27:30;7.38;;;6.32;;
76021;SDS011;64718;52.124;6.226;2023-07-09T04:29:57;9.43;;;6.53;;
76021;SDS011;64718;52.124;6.226;2023-07-09T04:32:25;8.30;;;6.90;;
76021;SDS011;64718;52.124;6.226;2023-07-09T04:34:51;10.38;;;7.45;;
76021;SDS011;64718;52.124;6.226;2023-07-09T04:37:18;10.70;;;7.03;;
76021;SDS011;64718;52.124;6.226;2023-07-09T04:39:45;10.98;;;7.47;;
76021;SDS011;64718;52.124;6.226;2023-07-09T04:42:13;11.02;;;7.35;;
76021;SDS011;64718;52.124;6.226;2023-07-09T04:44:47;9.75;;;6.43;;
76021;SDS011;64718;52.124;6.226;2023-07-09T04:47:14;10.30;;;6.85;;
76021;SDS011;64718;52.124;6.226;2023-07-09T04:49:42;9.30;;;7.03;;
76021;SDS011;64718;52.124;6.226;2023-07-09T04:54:37;8.65;;;6.85;;
76021;SDS011;64718;52.124;6.226;2023-07-09T04:57:08;10.60;;;6.25;;
76021;SDS011;64718;52.124;6.226;2023-07-09T04:59:35;7.97;;;6.43;;
76021;SDS011;64718;52.124;6.226;2023-07-09T05:02:02;6.93;;;6.22;;
76021;SDS011;64718;52.124;6.226;2023-07-09T05:04:29;9.60;;;6.00;;
76021;SDS011;64718;52.124;6.226;2023-07-09T05:06:57;10.00;;;6.80;;
76021;SDS011;64718;52.124;6.226;2023-07-09T05:11:51;8.70;;;6.10;;
76021;SDS011;64718;52.124;6.226;2023-07-09T05:14:17;7.55;;;6.57;;
76021;SDS011;64718;52.124;6.226;2023-07-09T05:16:44;7.60;;;5.05;;
76021;SDS011;64718;52.124;6.226;2023-07-09T05:19:11;11.75;;;6.60;;
76021;SDS011;64718;52.124;6.226;2023-07-09T05:21:38;10.30;;;6.60;;
76021;SDS011;64718;52.124;6.226;2023-07-09T05:24:06;9.13;;;6.88;;
76021;SDS011;64718;52.124;6.226;2023-07-09T05:26:33;7.22;;;6.32;;
76021;SDS011;64718;52.124;6.226;2023-07-09T05:29:01;8.43;;;6.78;;
76021;SDS011;64718;52.124;6.226;2023-07-09T05:31:29;10.13;;;7.45;;
76021;SDS011;64718;52.124;6.226;2023-07-09T05:33:55;9.00;;;6.53;;
76021;SDS011;64718;52.124;6.226;2023-07-09T05:36:22;9.63;;;7.15;;
76021;SDS011;64718;52.124;6.226;2023-07-09T05:38:48;7.65;;;6.80;;
76021;SDS011;64718;52.124;6.226;2023-07-09T05:41:17;8.75;;;7.07;;
76021;SDS011;64718;52.124;6.226;2023-07-09T05:43:44;10.02;;;6.90;;
76021;SDS011;64718;52.124;6.226;2023-07-09T05:46:11;11.50;;;7.18;;
76021;SDS011;64718;52.124;6.226;2023-07-09T05:51:05;7.65;;;6.22;;
76021;SDS011;64718;52.124;6.226;2023-07-09T05:53:32;8.70;;;7.30;;
76021;SDS011;64718;52.124;6.226;2023-07-09T05:55:59;9.02;;;7.03;;
76021;SDS011;64718;52.124;6.226;2023-07-09T05:58:27;8.10;;;6.85;;
76021;SDS011;64718;52.124;6.226;2023-07-09T06:00:53;9.48;;;6.65;;
76021;SDS011;64718;52.124;6.226;2023-07-09T06:03:21;8.57;;;7.03;;
76021;SDS011;64718;52.124;6.226;2023-07-09T06:05:48;11.85;;;7.15;;
76021;SDS011;64718;52.124;6.226;2023-07-09T06:08:15;7.95;;;7.15;;
76021;SDS011;64718;52.124;6.226;2023-07-09T06:10:50;11.43;;;8.05;;
76021;SDS011;64718;52.124;6.226;2023-07-09T06:13:17;9.45;;;7.47;;
76021;SDS011;64718;52.124;6.226;2023-07-09T06:15:46;10.13;;;7.53;;
76021;SDS011;64718;52.124;6.226;2023-07-09T06:18:13;10.13;;;7.40;;
76021;SDS011;64718;52.124;6.226;2023-07-09T06:20:39;6.65;;;5.05;;
76021;SDS011;64718;52.124;6.226;2023-07-09T06:23:06;8.90;;;7.47;;
76021;SDS011;64718;52.124;6.226;2023-07-09T06:25:32;8.30;;;5.82;;
76021;SDS011;64718;52.124;6.226;2023-07-09T06:27:59;9.93;;;7.78;;
76021;SDS011;64718;52.124;6.226;2023-07-09T06:30:26;9.30;;;7.00;;
76021;SDS011;64718;52.124;6.226;2023-07-09T06:32:54;8.50;;;7.30;;
76021;SDS011;64718;52.124;6.226;2023-07-09T06:35:20;8.07;;;7.00;;
76021;SDS011;64718;52.124;6.226;2023-07-09T06:37:47;8.63;;;7.75;;
76021;SDS011;64718;52.124;6.226;2023-07-09T06:40:13;9.45;;;7.10;;
76021;SDS011;64718;52.124;6.226;2023-07-09T06:42:40;10.35;;;7.80;;
76021;SDS011;64718;52.124;6.226;2023-07-09T06:45:07;7.85;;;6.63;;
76021;SDS011;64718;52.124;6.226;2023-07-09T06:47:34;9.25;;;7.93;;
76021;SDS011;64718;52.124;6.226;2023-07-09T06:50:02;9.07;;;7.03;;
76021;SDS011;64718;52.124;6.226;2023-07-09T06:52:29;10.05;;;6.07;;
76021;SDS011;64718;52.124;6.226;2023-07-09T06:54:55;9.63;;;6.07;;
76021;SDS011;64718;52.124;6.226;2023-07-09T06:57:22;9.65;;;8.32;;
76021;SDS011;64718;52.124;6.226;2023-07-09T06:59:48;10.75;;;7.95;;
76021;SDS011;64718;52.124;6.226;2023-07-09T07:02:15;10.18;;;7.90;;
76021;SDS011;64718;52.124;6.226;2023-07-09T07:04:42;8.07;;;5.45;;
76021;SDS011;64718;52.124;6.226;2023-07-09T07:07:10;8.48;;;7.53;;
76021;SDS011;64718;52.124;6.226;2023-07-09T07:09:37;9.85;;;8.93;;
76021;SDS011;64718;52.124;6.226;2023-07-09T07:12:04;7.60;;;6.90;;
76021;SDS011;64718;52.124;6.226;2023-07-09T07:14:31;9.10;;;7.47;;
76021;SDS011;64718;52.124;6.226;2023-07-09T07:16:58;10.38;;;7.15;;
76021;SDS011;64718;52.124;6.226;2023-07-09T07:19:24;9.55;;;8.55;;
76021;SDS011;64718;52.124;6.226;2023-07-09T07:21:52;8.00;;;7.25;;
76021;SDS011;64718;52.124;6.226;2023-07-09T07:24:20;8.35;;;7.53;;
76021;SDS011;64718;52.124;6.226;2023-07-09T07:26:46;11.73;;;8.18;;
76021;SDS011;64718;52.124;6.226;2023-07-09T07:29:13;10.27;;;8.35;;
76021;SDS011;64718;52.124;6.226;2023-07-09T07:31:39;12.55;;;8.77;;
76021;SDS011;64718;52.124;6.226;2023-07-09T07:34:06;8.68;;;7.38;;
76021;SDS011;64718;52.124;6.226;2023-07-09T07:36:33;9.98;;;8.18;;
76021;SDS011;64718;52.124;6.226;2023-07-09T07:38:59;9.35;;;8.05;;
76021;SDS011;64718;52.124;6.226;2023-07-09T07:41:27;9.38;;;7.07;;
76021;SDS011;64718;52.124;6.226;2023-07-09T07:43:54;9.15;;;7.63;;
76021;SDS011;64718;52.124;6.226;2023-07-09T07:46:20;9.65;;;7.65;;
76021;SDS011;64718;52.124;6.226;2023-07-09T07:48:47;10.05;;;7.82;;
76021;SDS011;64718;52.124;6.226;2023-07-09T07:51:13;7.57;;;6.78;;
76021;SDS011;64718;52.124;6.226;2023-07-09T07:53:40;8.30;;;6.18;;
76021;SDS011;64718;52.124;6.226;2023-07-09T07:56:07;8.40;;;7.50;;
76021;SDS011;64718;52.124;6.226;2023-07-09T07:58:35;9.52;;;7.80;;
76021;SDS011;64718;52.124;6.226;2023-07-09T08:01:02;7.55;;;6.82;;
76021;SDS011;64718;52.124;6.226;2023-07-09T08:03:28;7.25;;;5.40;;
76021;SDS011;64718;52.124;6.226;2023-07-09T08:05:55;8.48;;;6.90;;
76021;SDS011;64718;52.124;6.226;2023-07-09T08:08:21;8.02;;;6.97;;
76021;SDS011;64718;52.124;6.226;2023-07-09T08:10:49;7.90;;;7.13;;
76021;SDS011;64718;52.124;6.226;2023-07-09T08:13:16;7.70;;;4.97;;
76021;SDS011;64718;52.124;6.226;2023-07-09T08:15:44;7.60;;;6.43;;
76021;SDS011;64718;52.124;6.226;2023-07-09T08:18:13;8.00;;;5.07;;
76021;SDS011;64718;52.124;6.226;2023-07-09T08:20:42;8.63;;;7.00;;
76021;SDS011;64718;52.124;6.226;2023-07-09T08:23:10;8.48;;;6.95;;
76021;SDS011;64718;52.124;6.226;2023-07-09T08:25:36;9.63;;;7.07;;
76021;SDS011;64718;52.124;6.226;2023-07-09T08:28:03;8.35;;;7.55;;
76021;SDS011;64718;52.124;6.226;2023-07-09T08:30:30;7.55;;;6.85;;
76021;SDS011;64718;52.124;6.226;2023-07-09T08:32:58;7.53;;;6.90;;
76021;SDS011;64718;52.124;6.226;2023-07-09T08:35:24;7.70;;;6.97;;
76021;SDS011;64718;52.124;6.226;2023-07-09T08:37:51;7.88;;;7.13;;
76021;SDS011;64718;52.124;6.226;2023-07-09T08:40:17;8.13;;;7.38;;
76021;SDS011;64718;52.124;6.226;2023-07-09T08:42:45;8.57;;;7.78;;
76021;SDS011;64718;52.124;6.226;2023-07-09T08:45:16;7.75;;;6.95;;
76021;SDS011;64718;52.124;6.226;2023-07-09T08:47:56;8.45;;;6.80;;
76021;SDS011;64718;52.124;6.226;2023-07-09T08:50:29;7.85;;;6.90;;
76021;SDS011;64718;52.124;6.226;2023-07-09T08:53:02;8.73;;;7.03;;
76021;SDS011;64718;52.124;6.226;2023-07-09T08:55:31;9.23;;;6.75;;
76021;SDS011;64718;52.124;6.226;2023-07-09T09:00:37;8.80;;;6.70;;
76021;SDS011;64718;52.124;6.226;2023-07-09T09:03:13;7.50;;;6.22;;
76021;SDS011;64718;52.124;6.226;2023-07-09T09:05:43;10.10;;;8.05;;
76021;SDS011;64718;52.124;6.226;2023-07-09T09:08:26;9.15;;;6.90;;
76021;SDS011;64718;52.124;6.226;2023-07-09T09:11:03;7.90;;;7.18;;
76021;SDS011;64718;52.124;6.226;2023-07-09T09:13:39;7.80;;;7.05;;
76021;SDS011;64718;52.124;6.226;2023-07-09T09:16:09;7.28;;;6.57;;
76021;SDS011;64718;52.124;6.226;2023-07-09T09:18:50;8.65;;;6.60;;
76021;SDS011;64718;52.124;6.226;2023-07-09T09:21:22;8.50;;;6.65;;
76021;SDS011;64718;52.124;6.226;2023-07-09T09:23:51;8.30;;;7.00;;
76021;SDS011;64718;52.124;6.226;2023-07-09T09:26:21;10.27;;;7.05;;
76021;SDS011;64718;52.124;6.226;2023-07-09T09:28:52;7.97;;;6.97;;
76021;SDS011;64718;52.124;6.226;2023-07-09T09:31:19;7.05;;;6.38;;
76021;SDS011;64718;52.124;6.226;2023-07-09T09:33:46;7.50;;;6.45;;
76021;SDS011;64718;52.124;6.226;2023-07-09T09:36:17;6.95;;;6.25;;
76021;SDS011;64718;52.124;6.226;2023-07-09T09:38:45;8.20;;;7.35;;
76021;SDS011;64718;52.124;6.226;2023-07-09T09:41:13;8.77;;;6.85;;
76021;SDS011;64718;52.124;6.226;2023-07-09T09:43:41;7.72;;;6.97;;
76021;SDS011;64718;52.124;6.226;2023-07-09T09:46:09;7.93;;;6.97;;
76021;SDS011;64718;52.124;6.226;2023-07-09T09:51:10;7.13;;;6.50;;
76021;SDS011;64718;52.124;6.226;2023-07-09T09:53:40;8.13;;;7.35;;
76021;SDS011;64718;52.124;6.226;2023-07-09T09:58:40;8.80;;;7.28;;
76021;SDS011;64718;52.124;6.226;2023-07-09T10:01:11;8.43;;;6.78;;
76021;SDS011;64718;52.124;6.226;2023-07-09T10:03:41;7.25;;;6.45;;
76021;SDS011;64718;52.124;6.226;2023-07-09T10:06:12;7.60;;;6.03;;
76021;SDS011;64718;52.124;6.226;2023-07-09T10:08:46;8.70;;;6.00;;
76021;SDS011;64718;52.124;6.226;2023-07-09T10:11:24;7.38;;;5.78;;
76021;SDS011;64718;52.124;6.226;2023-07-09T10:13:59;10.85;;;6.28;;
76021;SDS011;64718;52.124;6.226;2023-07-09T10:16:31;7.28;;;4.88;;
76021;SDS011;64718;52.124;6.226;2023-07-09T10:19:04;8.50;;;6.45;;
76021;SDS011;64718;52.124;6.226;2023-07-09T10:21:42;7.13;;;5.95;;
76021;SDS011;64718;52.124;6.226;2023-07-09T10:24:17;7.90;;;6.13;;
76021;SDS011;64718;52.124;6.226;2023-07-09T10:26:58;7.68;;;5.82;;
76021;SDS011;64718;52.124;6.226;2023-07-09T10:29:42;6.43;;;5.22;;
76021;SDS011;64718;52.124;6.226;2023-07-09T10:32:24;9.13;;;6.47;;
76021;SDS011;64718;52.124;6.226;2023-07-09T10:35:04;8.73;;;5.90;;
76021;SDS011;64718;52.124;6.226;2023-07-09T10:37:44;8.10;;;5.53;;
76021;SDS011;64718;52.124;6.226;2023-07-09T10:40:27;9.90;;;5.45;;
76021;SDS011;64718;52.124;6.226;2023-07-09T10:42:58;6.55;;;5.47;;
76021;SDS011;64718;52.124;6.226;2023-07-09T10:45:28;8.73;;;5.57;;
76021;SDS011;64718;52.124;6.226;2023-07-09T10:47:58;8.20;;;6.38;;
76021;SDS011;64718;52.124;6.226;2023-07-09T10:50:28;7.05;;;5.25;;
76021;SDS011;64718;52.124;6.226;2023-07-09T10:52:57;8.43;;;5.63;;
76021;SDS011;64718;52.124;6.226;2023-07-09T10:55:33;8.80;;;5.53;;
76021;SDS011;64718;52.124;6.226;2023-07-09T10:58:10;8.48;;;6.00;;
76021;SDS011;64718;52.124;6.226;2023-07-09T11:00:47;7.18;;;5.60;;
76021;SDS011;64718;52.124;6.226;2023-07-09T11:05:43;7.65;;;5.57;;
76021;SDS011;64718;52.124;6.226;2023-07-09T11:10:41;6.38;;;4.90;;
76021;SDS011;64718;52.124;6.226;2023-07-09T11:13:15;5.90;;;4.60;;
76021;SDS011;64718;52.124;6.226;2023-07-09T11:15:47;7.38;;;6.68;;
76021;SDS011;64718;52.124;6.226;2023-07-09T11:18:16;6.65;;;5.40;;
76021;SDS011;64718;52.124;6.226;2023-07-09T11:20:54;7.35;;;4.80;;
76021;SDS011;64718;52.124;6.226;2023-07-09T11:23:24;6.78;;;5.00;;
76021;SDS011;64718;52.124;6.226;2023-07-09T11:26:01;6.07;;;4.55;;
76021;SDS011;64718;52.124;6.226;2023-07-09T11:28:36;6.80;;;4.75;;
76021;SDS011;64718;52.124;6.226;2023-07-09T11:31:05;5.40;;;4.63;;
76021;SDS011;64718;52.124;6.226;2023-07-09T11:33:33;6.50;;;4.07;;
76021;SDS011;64718;52.124;6.226;2023-07-09T11:36:07;7.30;;;5.10;;
76021;SDS011;64718;52.124;6.226;2023-07-09T11:38:39;6.57;;;5.40;;
76021;SDS011;64718;52.124;6.226;2023-07-09T11:44:04;4.07;;;3.65;;
76021;SDS011;64718;52.124;6.226;2023-07-09T11:46:40;6.60;;;4.00;;
76021;SDS011;64718;52.124;6.226;2023-07-09T11:49:16;6.60;;;4.05;;
76021;SDS011;64718;52.124;6.226;2023-07-09T11:51:48;7.63;;;4.20;;
76021;SDS011;64718;52.124;6.226;2023-07-09T11:54:18;6.97;;;4.80;;
76021;SDS011;64718;52.124;6.226;2023-07-09T11:56:52;8.02;;;4.25;;
76021;SDS011;64718;52.124;6.226;2023-07-09T11:59:21;5.40;;;3.65;;
76021;SDS011;64718;52.124;6.226;2023-07-09T12:01:48;5.35;;;4.15;;
76021;SDS011;64718;52.124;6.226;2023-07-09T12:04:20;5.40;;;3.35;;
76021;SDS011;64718;52.124;6.226;2023-07-09T12:06:49;4.43;;;3.75;;
76021;SDS011;64718;52.124;6.226;2023-07-09T12:09:22;6.70;;;3.88;;
76021;SDS011;64718;52.124;6.226;2023-07-09T12:11:49;4.97;;;3.92;;
76021;SDS011;64718;52.124;6.226;2023-07-09T12:14:17;7.60;;;4.25;;
76021;SDS011;64718;52.124;6.226;2023-07-09T12:16:47;5.32;;;4.03;;
76021;SDS011;64718;52.124;6.226;2023-07-09T12:19:16;6.55;;;4.32;;
76021;SDS011;64718;52.124;6.226;2023-07-09T12:21:44;6.75;;;3.88;;
76021;SDS011;64718;52.124;6.226;2023-07-09T12:24:15;5.43;;;3.95;;
76021;SDS011;64718;52.124;6.226;2023-07-09T12:26:47;6.07;;;4.60;;
76021;SDS011;64718;52.124;6.226;2023-07-09T12:29:14;5.35;;;3.97;;
76021;SDS011;64718;52.124;6.226;2023-07-09T12:31:41;4.95;;;4.25;;
76021;SDS011;64718;52.124;6.226;2023-07-09T12:34:11;7.18;;;4.20;;
76021;SDS011;64718;52.124;6.226;2023-07-09T12:36:41;7.15;;;4.20;;
76021;SDS011;64718;52.124;6.226;2023-07-09T12:39:12;6.30;;;4.22;;
76021;SDS011;64718;52.124;6.226;2023-07-09T12:41:41;7.13;;;4.25;;
76021;SDS011;64718;52.124;6.226;2023-07-09T12:44:15;6.30;;;4.18;;
76021;SDS011;64718;52.124;6.226;2023-07-09T12:46:44;5.78;;;3.70;;
76021;SDS011;64718;52.124;6.226;2023-07-09T12:49:20;5.35;;;4.03;;
76021;SDS011;64718;52.124;6.226;2023-07-09T12:51:48;5.38;;;4.63;;
76021;SDS011;64718;52.124;6.226;2023-07-09T12:54:16;5.53;;;4.03;;
76021;SDS011;64718;52.124;6.226;2023-07-09T12:56:44;6.32;;;3.45;;
76021;SDS011;64718;52.124;6.226;2023-07-09T12:59:16;4.95;;;3.47;;
76021;SDS011;64718;52.124;6.226;2023-07-09T13:01:47;6.55;;;3.65;;
76021;SDS011;64718;52.124;6.226;2023-07-09T13:04:15;4.95;;;3.15;;
76021;SDS011;64718;52.124;6.226;2023-07-09T13:06:44;5.22;;;3.70;;
76021;SDS011;64718;52.124;6.226;2023-07-09T13:09:14;4.50;;;3.00;;
76021;SDS011;64718;52.124;6.226;2023-07-09T13:11:45;4.57;;;3.08;;
76021;SDS011;64718;52.124;6.226;2023-07-09T13:14:16;6.15;;;2.80;;
76021;SDS011;64718;52.124;6.226;2023-07-09T13:16:45;5.22;;;3.25;;
76021;SDS011;64718;52.124;6.226;2023-07-09T13:19:11;3.08;;;2.63;;
76021;SDS011;64718;52.124;6.226;2023-07-09T13:21:38;3.33;;;3.03;;
76021;SDS011;64718;52.124;6.226;2023-07-09T13:24:10;5.13;;;3.25;;
76021;SDS011;64718;52.124;6.226;2023-07-09T13:26:40;4.47;;;3.33;;
76021;SDS011;64718;52.124;6.226;2023-07-09T13:29:10;4.28;;;3.88;;
76021;SDS011;64718;52.124;6.226;2023-07-09T13:31:39;5.38;;;3.35;;
76021;SDS011;64718;52.124;6.226;2023-07-09T13:34:08;3.30;;;2.70;;
76021;SDS011;64718;52.124;6.226;2023-07-09T13:36:44;4.55;;;2.88;;
76021;SDS011;64718;52.124;6.226;2023-07-09T13:39:12;3.30;;;2.85;;
76021;SDS011;64718;52.124;6.226;2023-07-09T13:41:39;5.07;;;3.63;;
76021;SDS011;64718;52.124;6.226;2023-07-09T13:44:10;3.53;;;2.90;;
76021;SDS011;64718;52.124;6.226;2023-07-09T13:46:38;4.93;;;2.70;;
76021;SDS011;64718;52.124;6.226;2023-07-09T13:49:07;5.15;;;3.00;;
76021;SDS011;64718;52.124;6.226;2023-07-09T13:51:35;5.13;;;3.00;;
76021;SDS011;64718;52.124;6.226;2023-07-09T13:54:06;5.60;;;2.55;;
76021;SDS011;64718;52.124;6.226;2023-07-09T13:56:48;3.97;;;2.45;;
76021;SDS011;64718;52.124;6.226;2023-07-09T13:59:17;8.15;;;3.30;;
76021;SDS011;64718;52.124;6.226;2023-07-09T14:01:46;5.22;;;2.80;;
76021;SDS011;64718;52.124;6.226;2023-07-09T14:04:15;5.53;;;2.80;;
76021;SDS011;64718;52.124;6.226;2023-07-09T14:06:42;4.30;;;4.00;;
76021;SDS011;64718;52.124;6.226;2023-07-09T14:09:10;5.35;;;3.78;;
76021;SDS011;64718;52.124;6.226;2023-07-09T14:11:37;5.65;;;3.88;;
76021;SDS011;64718;52.124;6.226;2023-07-09T14:14:12;6.20;;;4.00;;
76021;SDS011;64718;52.124;6.226;2023-07-09T14:16:43;3.60;;;3.30;;
76021;SDS011;64718;52.124;6.226;2023-07-09T14:19:12;5.20;;;3.10;;
76021;SDS011;64718;52.124;6.226;2023-07-09T14:21:39;5.97;;;3.10;;
76021;SDS011;64718;52.124;6.226;2023-07-09T14:24:08;5.28;;;3.15;;
76021;SDS011;64718;52.124;6.226;2023-07-09T14:26:43;4.97;;;3.15;;
76021;SDS011;64718;52.124;6.226;2023-07-09T14:29:12;6.03;;;3.38;;
76021;SDS011;64718;52.124;6.226;2023-07-09T14:31:39;3.47;;;2.83;;
76021;SDS011;64718;52.124;6.226;2023-07-09T14:34:13;4.18;;;3.35;;
76021;SDS011;64718;52.124;6.226;2023-07-09T14:36:46;5.22;;;3.63;;
76021;SDS011;64718;52.124;6.226;2023-07-09T14:39:13;9.30;;;4.85;;
76021;SDS011;64718;52.124;6.226;2023-07-09T14:41:40;6.03;;;5.43;;
76021;SDS011;64718;52.124;6.226;2023-07-09T14:44:14;6.97;;;4.95;;
76021;SDS011;64718;52.124;6.226;2023-07-09T14:46:47;7.95;;;6.70;;
76021;SDS011;64718;52.124;6.226;2023-07-09T14:49:14;7.85;;;4.60;;
76021;SDS011;64718;52.124;6.226;2023-07-09T14:51:41;8.65;;;5.65;;
76021;SDS011;64718;52.124;6.226;2023-07-09T14:54:10;8.95;;;4.40;;
76021;SDS011;64718;52.124;6.226;2023-07-09T14:56:43;5.45;;;4.57;;
76021;SDS011;64718;52.124;6.226;2023-07-09T14:59:10;5.25;;;3.75;;
76021;SDS011;64718;52.124;6.226;2023-07-09T15:01:38;5.93;;;3.42;;
76021;SDS011;64718;52.124;6.226;2023-07-09T15:04:07;7.10;;;3.22;;
76021;SDS011;64718;52.124;6.226;2023-07-09T15:06:52;8.00;;;3.17;;
76021;SDS011;64718;52.124;6.226;2023-07-09T15:09:20;5.72;;;2.78;;
76021;SDS011;64718;52.124;6.226;2023-07-09T15:11:48;4.53;;;2.58;;
76021;SDS011;64718;52.124;6.226;2023-07-09T15:14:17;6.57;;;2.92;;
76021;SDS011;64718;52.124;6.226;2023-07-09T15:16:45;3.97;;;2.42;;
76021;SDS011;64718;52.124;6.226;2023-07-09T15:19:12;5.20;;;2.55;;
76021;SDS011;64718;52.124;6.226;2023-07-09T15:21:40;4.90;;;2.95;;
76021;SDS011;64718;52.124;6.226;2023-07-09T15:24:09;5.45;;;2.70;;